createdAt,value
2018-05-04T00:00:18.681Z,15.78
2018-05-04T00:02:51.870Z,15.78
2018-05-04T00:05:19.010Z,15.74
2018-05-04T00:07:45.266Z,15.73
2018-05-04T00:10:11.530Z,15.74
2018-05-04T00:12:38.110Z,15.71
2018-05-04T00:15:04.398Z,15.67
2018-05-04T00:17:30.876Z,15.64
2018-05-04T00:19:57.110Z,15.65
2018-05-04T00:22:23.345Z,15.63
2018-05-04T00:24:49.667Z,15.55
2018-05-04T00:27:15.921Z,15.59
2018-05-04T00:29:42.223Z,15.54
2018-05-04T00:32:08.442Z,15.54
2018-05-04T00:34:35.526Z,15.51
2018-05-04T00:37:01.754Z,15.48
2018-05-04T00:39:28.026Z,15.50
2018-05-04T00:41:54.263Z,15.49
2018-05-04T00:44:20.506Z,15.49
2018-05-04T00:46:46.789Z,15.49
2018-05-04T00:49:13.053Z,15.42
2018-05-04T00:51:40.146Z,15.38
2018-05-04T00:54:18.490Z,15.33
2018-05-04T00:56:44.740Z,15.26
2018-05-04T00:59:10.955Z,15.26
2018-05-04T01:01:37.242Z,15.27
2018-05-04T01:04:03.517Z,15.28
2018-05-04T01:06:29.753Z,15.27
2018-05-04T01:08:56.078Z,15.20
2018-05-04T01:11:22.302Z,15.14
2018-05-04T01:13:48.554Z,15.12
2018-05-04T01:16:14.806Z,15.14
2018-05-04T01:18:41.046Z,15.07
2018-05-04T01:21:07.339Z,15.09
2018-05-04T01:23:33.570Z,15.05
2018-05-04T01:25:59.790Z,15.00
2018-05-04T01:28:26.045Z,14.91
2018-05-04T01:30:52.273Z,14.96
2018-05-04T01:33:18.604Z,14.92
2018-05-04T01:35:44.861Z,14.86
2018-05-04T01:38:11.082Z,14.84
2018-05-04T01:40:37.334Z,14.87
2018-05-04T01:43:03.631Z,14.85
2018-05-04T01:45:29.970Z,14.80
2018-05-04T01:47:56.239Z,14.79
2018-05-04T01:50:22.474Z,14.79
2018-05-04T01:52:48.741Z,14.78
2018-05-04T01:55:14.962Z,14.63
2018-05-04T01:57:41.254Z,14.53
2018-05-04T02:00:07.511Z,14.51
2018-05-04T02:02:33.826Z,14.50
2018-05-04T02:05:00.104Z,14.51
2018-05-04T02:07:26.410Z,14.51
2018-05-04T02:09:52.640Z,14.48
2018-05-04T02:12:18.869Z,14.43
2018-05-04T02:14:45.173Z,14.32
2018-05-04T02:17:11.385Z,14.31
2018-05-04T02:19:37.618Z,14.24
2018-05-04T02:22:03.878Z,14.24
2018-05-04T02:24:30.170Z,14.19
2018-05-04T02:26:56.383Z,14.24
2018-05-04T02:29:22.662Z,14.22
2018-05-04T02:31:48.918Z,14.17
2018-05-04T02:34:15.236Z,14.14
2018-05-04T02:36:41.510Z,14.05
2018-05-04T02:39:14.766Z,14.07
2018-05-04T02:41:41.082Z,14.12
2018-05-04T02:44:07.301Z,14.08
2018-05-04T02:46:33.547Z,14.02
2018-05-04T02:49:00.035Z,13.93
2018-05-04T02:51:26.249Z,13.88
2018-05-04T02:53:52.479Z,13.92
2018-05-04T02:56:18.758Z,13.91
2018-05-04T02:58:45.014Z,13.91
2018-05-04T03:01:11.278Z,13.87
2018-05-04T03:03:37.602Z,13.91
2018-05-04T03:06:04.055Z,13.93
2018-05-04T03:08:30.362Z,13.92
2018-05-04T03:10:56.597Z,13.94
2018-05-04T03:13:22.818Z,13.90
2018-05-04T03:15:49.042Z,13.88
2018-05-04T03:18:15.298Z,13.92
2018-05-04T03:20:41.623Z,13.84
2018-05-04T03:23:08.102Z,13.82
2018-05-04T03:25:34.395Z,13.81
2018-05-04T03:28:00.691Z,13.77
2018-05-04T03:30:26.935Z,13.82
2018-05-04T03:32:53.190Z,13.83
2018-05-04T03:35:19.453Z,13.84
2018-05-04T03:37:45.702Z,13.82
2018-05-04T03:40:12.290Z,13.84
2018-05-04T03:42:38.497Z,13.87
2018-05-04T03:45:04.797Z,13.95
2018-05-04T03:47:31.058Z,14.00
2018-05-04T03:49:57.318Z,14.01
2018-05-04T03:52:25.564Z,14.03
2018-05-04T03:54:51.802Z,14.06
2018-05-04T03:57:30.434Z,14.06
2018-05-04T04:00:08.954Z,14.10
2018-05-04T04:02:58.289Z,14.09
2018-05-04T04:05:24.622Z,14.05
2018-05-04T04:07:50.921Z,14.06
2018-05-04T04:10:17.191Z,14.06
2018-05-04T04:12:43.471Z,14.06
2018-05-04T04:15:09.711Z,14.08
2018-05-04T04:17:35.954Z,14.10
2018-05-04T04:20:02.208Z,14.13
2018-05-04T04:22:28.447Z,14.14
2018-05-04T04:24:54.746Z,14.11
2018-05-04T04:27:20.999Z,14.08
2018-05-04T04:29:47.325Z,14.05
2018-05-04T04:32:13.557Z,14.02
2018-05-04T04:34:39.834Z,14.04
2018-05-04T04:37:06.057Z,14.05
2018-05-04T04:39:32.273Z,14.05
2018-05-04T04:41:58.546Z,14.13
2018-05-04T04:44:24.757Z,14.15
2018-05-04T04:46:51.011Z,14.18
2018-05-04T04:49:17.273Z,14.18
2018-05-04T04:51:43.537Z,14.22
2018-05-04T04:54:09.762Z,14.23
2018-05-04T04:56:36.003Z,14.25
2018-05-04T04:59:02.238Z,14.15
2018-05-04T05:01:28.507Z,14.14
2018-05-04T05:03:54.770Z,14.12
2018-05-04T05:06:21.002Z,14.19
2018-05-04T05:08:47.222Z,14.19
2018-05-04T05:11:13.970Z,14.13
2018-05-04T05:13:40.198Z,14.16
2018-05-04T05:16:06.418Z,14.15
2018-05-04T05:18:32.691Z,14.21
2018-05-04T05:20:58.902Z,14.21
2018-05-04T05:23:25.178Z,14.26
2018-05-04T05:25:51.418Z,14.23
2018-05-04T05:28:17.703Z,14.23
2018-05-04T05:30:43.926Z,14.25
2018-05-04T05:33:10.263Z,14.17
2018-05-04T05:35:36.569Z,14.24
2018-05-04T05:38:02.810Z,14.32
2018-05-04T05:40:29.051Z,14.35
2018-05-04T05:42:55.294Z,14.34
2018-05-04T05:45:21.535Z,14.38
2018-05-04T05:47:47.875Z,14.39
2018-05-04T05:50:14.158Z,14.45
2018-05-04T05:52:40.387Z,14.47
2018-05-04T05:55:06.631Z,14.54
2018-05-04T05:57:32.849Z,14.53
2018-05-04T05:59:59.099Z,14.49
2018-05-04T06:02:25.358Z,14.53
2018-05-04T06:04:51.597Z,14.63
2018-05-04T06:07:17.900Z,14.64
2018-05-04T06:09:44.160Z,14.70
2018-05-04T06:12:10.439Z,14.64
2018-05-04T06:14:36.686Z,14.71
2018-05-04T06:17:02.962Z,14.75
2018-05-04T06:19:29.235Z,14.83
2018-05-04T06:21:55.458Z,14.91
2018-05-04T06:24:21.742Z,14.90
2018-05-04T06:26:47.978Z,14.98
2018-05-04T06:29:14.202Z,14.95
2018-05-04T06:31:40.482Z,15.03
2018-05-04T06:34:06.739Z,15.14
2018-05-04T06:36:32.998Z,15.21
2018-05-04T06:38:59.302Z,15.26
2018-05-04T06:41:25.520Z,15.35
2018-05-04T06:43:51.754Z,15.35
2018-05-04T06:46:18.007Z,15.36
2018-05-04T06:48:44.328Z,15.41
2018-05-04T06:51:10.473Z,15.53
2018-05-04T06:53:36.738Z,15.62
2018-05-04T06:56:03.011Z,15.75
2018-05-04T06:58:29.227Z,15.85
2018-05-04T07:00:55.474Z,15.82
2018-05-04T07:03:21.730Z,15.95
2018-05-04T07:05:47.978Z,15.97
2018-05-04T07:08:14.221Z,16.02
2018-05-04T07:10:40.470Z,16.01
2018-05-04T07:13:06.678Z,16.08
2018-05-04T07:15:32.932Z,16.12
2018-05-04T07:17:59.150Z,16.14
2018-05-04T07:20:25.373Z,16.26
2018-05-04T07:22:51.618Z,16.31
2018-05-04T07:25:17.955Z,16.41
2018-05-04T07:27:44.170Z,16.34
2018-05-04T07:30:10.438Z,16.54
2018-05-04T07:32:36.691Z,16.80
2018-05-04T07:35:02.953Z,17.14
2018-05-04T07:37:29.222Z,17.44
2018-05-04T07:39:55.434Z,17.67
2018-05-04T07:42:21.662Z,17.90
2018-05-04T07:44:47.929Z,17.93
2018-05-04T07:47:14.154Z,18.29
2018-05-04T07:49:40.414Z,18.74
2018-05-04T07:52:06.670Z,18.92
2018-05-04T07:54:32.895Z,18.96
2018-05-04T07:56:59.134Z,18.97
2018-05-04T07:59:25.387Z,18.70
2018-05-04T08:01:51.638Z,18.81
2018-05-04T08:04:17.887Z,18.62
2018-05-04T08:06:44.134Z,18.56
2018-05-04T08:09:10.436Z,18.69
2018-05-04T08:11:36.599Z,18.48
2018-05-04T08:14:02.958Z,18.42
2018-05-04T08:16:29.186Z,18.54
2018-05-04T08:18:55.405Z,18.73
2018-05-04T08:21:21.689Z,18.97
2018-05-04T08:23:47.907Z,19.05
2018-05-04T08:26:14.134Z,19.12
2018-05-04T08:28:40.393Z,19.17
2018-05-04T08:31:06.698Z,19.30
2018-05-04T08:33:32.919Z,19.83
2018-05-04T08:35:59.210Z,20.58
2018-05-04T08:38:25.478Z,21.23
2018-05-04T08:40:51.800Z,21.32
2018-05-04T08:43:17.979Z,21.49
2018-05-04T08:45:44.269Z,21.62
2018-05-04T08:48:10.544Z,21.97
2018-05-04T08:50:36.774Z,22.17
2018-05-04T08:53:03.047Z,22.13
2018-05-04T08:55:29.266Z,22.25
2018-05-04T08:57:55.528Z,22.22
2018-05-04T09:00:21.774Z,22.32
2018-05-04T09:02:48.019Z,22.69
2018-05-04T09:05:14.391Z,23.00
2018-05-04T09:07:40.613Z,23.31
2018-05-04T09:10:06.858Z,23.53
2018-05-04T09:12:33.146Z,23.48
2018-05-04T09:14:59.390Z,23.34
2018-05-04T09:17:25.667Z,23.25
2018-05-04T09:19:52.053Z,23.32
2018-05-04T09:22:18.230Z,23.47
2018-05-04T09:24:44.458Z,23.64
2018-05-04T09:27:10.713Z,23.75
2018-05-04T09:29:37.013Z,23.81
2018-05-04T09:32:03.278Z,23.80
2018-05-04T09:34:29.541Z,23.94
2018-05-04T09:36:55.810Z,24.08
2018-05-04T09:39:22.058Z,24.13
2018-05-04T09:41:48.342Z,24.29
2018-05-04T09:44:14.574Z,24.70
2018-05-04T09:46:40.797Z,25.19
2018-05-04T09:49:07.138Z,25.77
2018-05-04T09:51:33.380Z,26.06
2018-05-04T09:53:59.601Z,26.06
2018-05-04T09:56:25.861Z,26.69
2018-05-04T09:58:52.121Z,27.39
2018-05-04T10:01:18.461Z,27.38
2018-05-04T10:03:44.782Z,27.26
2018-05-04T10:06:11.030Z,27.64
2018-05-04T10:08:37.294Z,28.09
2018-05-04T10:11:03.579Z,27.98
2018-05-04T10:13:29.838Z,28.04
2018-05-04T10:15:56.096Z,28.41
2018-05-04T10:18:22.349Z,28.48
2018-05-04T10:20:48.597Z,28.70
2018-05-04T10:23:14.857Z,28.86
2018-05-04T10:25:41.123Z,28.80
2018-05-04T10:28:07.402Z,28.45
2018-05-04T10:30:33.666Z,28.86
2018-05-04T10:32:59.918Z,29.15
2018-05-04T10:35:26.174Z,29.32
2018-05-04T10:37:52.411Z,29.13
2018-05-04T10:40:18.847Z,28.92
2018-05-04T10:42:45.156Z,29.34
2018-05-04T10:45:11.474Z,29.01
2018-05-04T10:47:37.730Z,29.40
2018-05-04T10:50:04.003Z,29.81
2018-05-04T10:52:30.267Z,30.22
2018-05-04T10:54:56.519Z,30.37
2018-05-04T10:57:22.787Z,30.56
2018-05-04T10:59:49.087Z,30.72
2018-05-04T11:02:15.390Z,30.95
2018-05-04T11:04:41.642Z,31.11
2018-05-04T11:07:07.926Z,31.33
2018-05-04T11:09:34.174Z,31.34
2018-05-04T11:12:00.491Z,31.33
2018-05-04T11:14:26.681Z,31.44
2018-05-04T11:16:52.949Z,31.42
2018-05-04T11:19:19.253Z,31.80
2018-05-04T11:21:45.470Z,32.18
2018-05-04T11:24:11.746Z,31.93
2018-05-04T11:26:37.990Z,32.18
2018-05-04T11:29:04.226Z,32.56
2018-05-04T11:31:30.535Z,32.71
2018-05-04T11:33:56.766Z,32.94
2018-05-04T11:36:22.999Z,33.07
2018-05-04T11:38:49.319Z,33.47
2018-05-04T11:41:15.543Z,33.12
2018-05-04T11:43:41.764Z,33.39
2018-05-04T11:46:08.038Z,33.51
2018-05-04T11:48:34.278Z,33.64
2018-05-04T11:51:00.500Z,33.81
2018-05-04T11:53:26.762Z,33.77
2018-05-04T11:55:52.986Z,34.16
2018-05-04T11:58:19.211Z,34.25
2018-05-04T12:00:45.454Z,34.21
2018-05-04T12:03:11.678Z,34.10
2018-05-04T12:05:37.906Z,34.27
2018-05-04T12:08:04.154Z,34.26
2018-05-04T12:10:30.382Z,34.36
2018-05-04T12:12:56.649Z,34.50
2018-05-04T12:15:22.926Z,34.91
2018-05-04T12:17:49.155Z,35.04
2018-05-04T12:20:15.637Z,35.03
2018-05-04T12:22:41.942Z,35.02
2018-05-04T12:25:08.130Z,34.85
2018-05-04T12:27:34.347Z,34.94
2018-05-04T12:30:00.615Z,35.00
2018-05-04T12:32:26.830Z,35.06
2018-05-04T12:34:53.065Z,35.18
2018-05-04T12:37:19.325Z,35.08
2018-05-04T12:39:45.558Z,35.18
2018-05-04T12:42:11.821Z,35.19
2018-05-04T12:44:38.091Z,35.61
2018-05-04T12:47:04.391Z,35.59
2018-05-04T12:49:30.570Z,35.49
2018-05-04T12:51:56.821Z,35.67
2018-05-04T12:54:23.045Z,35.78
2018-05-04T12:56:49.300Z,36.01
2018-05-04T12:59:15.574Z,36.13
2018-05-04T13:01:41.798Z,36.35
2018-05-04T13:04:08.025Z,36.45
2018-05-04T13:06:34.269Z,36.01
2018-05-04T13:09:00.490Z,36.03
2018-05-04T13:11:26.773Z,35.83
2018-05-04T13:13:53.055Z,36.11
2018-05-04T13:16:19.279Z,36.12
2018-05-04T13:18:45.506Z,36.12
2018-05-04T13:21:11.759Z,36.15
2018-05-04T13:23:37.994Z,36.22
2018-05-04T13:26:04.218Z,36.11
2018-05-04T13:28:30.481Z,36.09
2018-05-04T13:30:56.744Z,36.04
2018-05-04T13:33:23.037Z,36.21
2018-05-04T13:35:49.294Z,36.27
2018-05-04T13:38:15.562Z,36.11
2018-05-04T13:40:41.790Z,35.77
2018-05-04T13:43:08.075Z,35.68
2018-05-04T13:45:34.319Z,35.75
2018-05-04T13:48:00.546Z,35.58
2018-05-04T13:50:26.868Z,35.66
2018-05-04T13:52:53.125Z,35.75
2018-05-04T13:55:19.349Z,35.70
2018-05-04T13:57:45.630Z,35.62
2018-05-04T14:00:11.868Z,35.80
2018-05-04T14:02:38.181Z,35.78
2018-05-04T14:05:04.483Z,35.83
2018-05-04T14:07:30.715Z,35.99
2018-05-04T14:09:56.946Z,35.77
2018-05-04T14:12:23.237Z,35.77
2018-05-04T14:14:49.519Z,35.74
2018-05-04T14:17:15.750Z,35.49
2018-05-04T14:19:42.026Z,35.78
2018-05-04T14:22:08.252Z,35.82
2018-05-04T14:24:34.516Z,35.57
2018-05-04T14:27:00.778Z,35.46
2018-05-04T14:29:27.000Z,35.33
2018-05-04T14:31:53.226Z,35.38
2018-05-04T14:34:19.485Z,35.39
2018-05-04T14:36:45.709Z,34.82
2018-05-04T14:39:11.928Z,34.60
2018-05-04T14:41:38.183Z,34.44
2018-05-04T14:44:04.419Z,34.54
2018-05-04T14:46:30.672Z,34.31
2018-05-04T14:48:56.934Z,34.16
2018-05-04T14:51:23.156Z,34.03
2018-05-04T14:53:49.377Z,33.82
2018-05-04T14:56:15.662Z,33.68
2018-05-04T14:58:41.974Z,33.67
2018-05-04T15:01:08.179Z,33.39
2018-05-04T15:03:34.430Z,33.12
2018-05-04T15:06:00.659Z,32.91
2018-05-04T15:08:26.926Z,32.78
2018-05-04T15:10:53.198Z,32.57
2018-05-04T15:13:19.418Z,32.45
2018-05-04T15:15:45.674Z,32.12
2018-05-04T15:18:11.966Z,31.83
2018-05-04T15:20:38.186Z,31.48
2018-05-04T15:23:04.415Z,31.29
2018-05-04T15:25:30.678Z,30.89
2018-05-04T15:27:56.922Z,30.45
2018-05-04T15:30:23.159Z,29.79
2018-05-04T15:32:49.404Z,29.44
2018-05-04T15:35:15.630Z,28.71
2018-05-04T15:37:41.868Z,28.07
2018-05-04T15:40:08.141Z,27.41
2018-05-04T15:42:34.366Z,26.91
2018-05-04T15:45:00.590Z,26.47
2018-05-04T15:47:26.838Z,25.92
2018-05-04T15:49:53.103Z,25.37
2018-05-04T15:52:19.326Z,25.09
2018-05-04T15:54:45.668Z,24.70
2018-05-04T15:57:11.851Z,24.42
2018-05-04T15:59:38.087Z,24.15
2018-05-04T16:02:04.341Z,23.97
2018-05-04T16:04:30.575Z,23.74
2018-05-04T16:06:56.902Z,23.52
2018-05-04T16:09:23.161Z,23.30
2018-05-04T16:11:49.394Z,23.13
2018-05-04T16:14:15.637Z,23.07
2018-05-04T16:16:41.890Z,22.79
2018-05-04T16:19:08.123Z,22.63
2018-05-04T16:21:34.377Z,22.51
2018-05-04T16:24:00.638Z,22.40
2018-05-04T16:26:26.902Z,22.30
2018-05-04T16:28:53.177Z,22.20
2018-05-04T16:31:19.441Z,22.16
2018-05-04T16:33:45.674Z,22.09
2018-05-04T16:36:11.902Z,22.05
2018-05-04T16:38:38.228Z,21.97
2018-05-04T16:41:04.443Z,21.92
2018-05-04T16:43:30.678Z,21.89
2018-05-04T16:45:56.935Z,21.81
2018-05-04T16:48:29.114Z,21.74
2018-05-04T16:50:55.343Z,21.64
2018-05-04T16:53:21.598Z,21.57
2018-05-04T16:55:47.922Z,21.50
2018-05-04T16:58:14.170Z,21.43
2018-05-04T17:00:40.489Z,21.38
2018-05-04T17:03:06.806Z,21.30
2018-05-04T17:05:33.058Z,21.29
2018-05-04T17:07:59.366Z,21.23
2018-05-04T17:10:25.613Z,21.11
2018-05-04T17:12:51.891Z,21.03
2018-05-04T17:15:18.200Z,20.97
2018-05-04T17:17:44.464Z,20.93
2018-05-04T17:20:10.693Z,20.81
2018-05-04T17:22:36.994Z,20.73
2018-05-04T17:25:03.274Z,20.58
2018-05-04T17:27:29.538Z,20.53
2018-05-04T17:29:55.823Z,20.45
2018-05-04T17:32:22.086Z,20.38
2018-05-04T17:34:48.309Z,20.32
2018-05-04T17:37:14.602Z,20.29
2018-05-04T17:39:40.831Z,20.23
2018-05-04T17:42:07.073Z,20.15
2018-05-04T17:44:33.366Z,20.09
2018-05-04T17:46:59.614Z,20.07
2018-05-04T17:49:25.878Z,19.98
2018-05-04T17:51:52.178Z,19.90
2018-05-04T17:54:18.434Z,19.81
2018-05-04T17:56:44.670Z,19.73
2018-05-04T17:59:10.983Z,19.65
2018-05-04T18:01:37.238Z,19.58
2018-05-04T18:04:03.490Z,19.51
2018-05-04T18:06:29.766Z,19.44
2018-05-04T18:08:56.007Z,19.35
2018-05-04T18:11:22.242Z,19.25
2018-05-04T18:13:48.499Z,19.20
2018-05-04T18:16:14.759Z,19.15
2018-05-04T18:18:41.034Z,19.09
2018-05-04T18:21:07.305Z,18.99
2018-05-04T18:23:33.553Z,18.92
2018-05-04T18:25:59.763Z,18.81
2018-05-04T18:28:26.360Z,18.76
2018-05-04T18:30:52.685Z,18.70
2018-05-04T18:33:19.038Z,18.66
2018-05-04T18:35:45.292Z,18.58
2018-05-04T18:38:11.566Z,18.54
2018-05-04T18:40:37.806Z,18.56
2018-05-04T18:43:04.063Z,18.54
2018-05-04T18:45:30.307Z,18.48
2018-05-04T18:47:56.539Z,18.39
2018-05-04T18:50:22.779Z,18.31
2018-05-04T18:52:49.018Z,18.28
2018-05-04T18:55:15.370Z,18.14
2018-05-04T18:57:41.682Z,18.04
2018-05-04T19:00:07.966Z,18.03
2018-05-04T19:02:40.349Z,17.99
2018-05-04T19:05:06.694Z,17.99
2018-05-04T19:07:32.923Z,17.97
2018-05-04T19:09:59.218Z,17.90
2018-05-04T19:12:25.487Z,17.84
2018-05-04T19:14:51.768Z,17.80
2018-05-04T19:17:18.150Z,17.82
2018-05-04T19:19:44.414Z,17.73
2018-05-04T19:22:10.638Z,17.67
2018-05-04T19:24:36.883Z,17.62
2018-05-04T19:27:03.143Z,17.62
2018-05-04T19:29:29.386Z,17.54
2018-05-04T19:31:55.748Z,17.45
2018-05-04T19:34:22.400Z,17.34
2018-05-04T19:36:48.626Z,17.35
2018-05-04T19:39:14.886Z,17.29
2018-05-04T19:41:41.163Z,17.24
2018-05-04T19:44:07.391Z,17.16
2018-05-04T19:46:33.602Z,17.10
2018-05-04T19:48:59.854Z,17.02
2018-05-04T19:51:26.069Z,16.97
2018-05-04T19:53:52.318Z,16.88
2018-05-04T19:56:18.619Z,16.92
2018-05-04T19:58:44.883Z,16.86
2018-05-04T20:01:11.115Z,16.77
2018-05-04T20:03:37.383Z,16.76
2018-05-04T20:06:03.631Z,16.77
2018-05-04T20:08:29.855Z,16.79
2018-05-04T20:10:56.116Z,16.71
2018-05-04T20:13:22.335Z,16.63
2018-05-04T20:15:48.582Z,16.56
2018-05-04T20:18:14.832Z,16.51
2018-05-04T20:20:41.082Z,16.48
2018-05-04T20:23:07.466Z,16.46
2018-05-04T20:25:33.783Z,16.42
2018-05-04T20:28:00.210Z,16.39
2018-05-04T20:30:33.460Z,16.36
2018-05-04T20:32:59.696Z,16.28
2018-05-04T20:35:25.922Z,16.33
2018-05-04T20:37:52.203Z,16.25
2018-05-04T20:40:18.744Z,16.21
2018-05-04T20:42:45.047Z,16.20
2018-05-04T20:45:11.457Z,16.14
2018-05-04T20:47:37.727Z,16.10
2018-05-04T20:50:04.833Z,16.04
2018-05-04T20:52:31.174Z,16.00
2018-05-04T20:54:57.398Z,15.97
2018-05-04T20:57:23.708Z,15.91
2018-05-04T20:59:49.983Z,15.93
2018-05-04T21:02:16.198Z,15.88
2018-05-04T21:04:42.486Z,15.83
2018-05-04T21:07:08.835Z,15.79
2018-05-04T21:09:35.199Z,15.82
2018-05-04T21:12:01.422Z,15.78
2018-05-04T21:14:28.759Z,15.71
2018-05-04T21:16:54.994Z,15.67
2018-05-04T21:19:21.284Z,15.72
2018-05-04T21:21:47.608Z,15.69
2018-05-04T21:24:13.870Z,15.69
2018-05-04T21:26:40.187Z,15.71
2018-05-04T21:29:07.383Z,15.73
2018-05-04T21:31:33.814Z,15.75
2018-05-04T21:34:00.041Z,15.72
2018-05-04T21:36:26.374Z,15.69
2018-05-04T21:38:52.671Z,15.67
2018-05-04T21:41:19.001Z,15.66
2018-05-04T21:43:45.467Z,15.61
2018-05-04T21:46:11.682Z,15.57
2018-05-04T21:48:37.958Z,15.53
2018-05-04T21:51:04.245Z,15.51
2018-05-04T21:53:31.582Z,15.50
2018-05-04T21:55:58.873Z,15.48
2018-05-04T21:58:25.290Z,15.44
2018-05-04T22:00:51.518Z,15.42
2018-05-04T22:03:17.857Z,15.41
2018-05-04T22:05:44.155Z,15.38
2018-05-04T22:08:10.430Z,15.30
2018-05-04T22:10:36.671Z,15.27
2018-05-04T22:13:02.917Z,15.23
2018-05-04T22:15:29.297Z,15.19
2018-05-04T22:17:55.534Z,15.18
2018-05-04T22:20:21.871Z,15.14
2018-05-04T22:22:48.094Z,15.13
2018-05-04T22:25:14.398Z,15.08
2018-05-04T22:27:40.695Z,15.06
2018-05-04T22:30:07.036Z,15.02
2018-05-04T22:32:33.322Z,14.98
2018-05-04T22:34:59.583Z,14.93
2018-05-04T22:37:25.805Z,14.91
2018-05-04T22:39:52.114Z,14.85
2018-05-04T22:42:18.369Z,14.82
2018-05-04T22:44:44.682Z,14.77
2018-05-04T22:47:10.854Z,14.76
2018-05-04T22:49:37.119Z,14.73
2018-05-04T22:52:03.434Z,14.71
2018-05-04T22:54:29.643Z,14.70
2018-05-04T22:56:55.885Z,14.62
2018-05-04T22:59:22.106Z,14.63
2018-05-04T23:01:48.338Z,14.54
2018-05-04T23:04:14.585Z,14.53
2018-05-04T23:06:40.847Z,14.52
2018-05-04T23:09:07.148Z,14.47
2018-05-04T23:11:33.364Z,14.45
2018-05-04T23:13:59.578Z,14.43
2018-05-04T23:16:25.812Z,14.38
2018-05-04T23:18:52.070Z,14.36
2018-05-04T23:21:18.314Z,14.37
2018-05-04T23:23:44.546Z,14.28
2018-05-04T23:26:10.789Z,14.24
2018-05-04T23:28:37.239Z,14.20
2018-05-04T23:31:04.257Z,14.22
2018-05-04T23:33:30.527Z,14.15
2018-05-04T23:35:56.737Z,14.15
2018-05-04T23:38:22.953Z,14.16
2018-05-04T23:40:49.262Z,14.15
2018-05-04T23:43:15.482Z,14.13
2018-05-04T23:45:41.714Z,14.09
2018-05-04T23:48:07.998Z,14.08
2018-05-04T23:50:34.221Z,14.06
2018-05-04T23:53:00.438Z,14.06
2018-05-04T23:55:26.696Z,14.07
2018-05-04T23:57:52.966Z,14.09
